createdAt,value
2022-09-01T00:00:49.318Z,50.877205
2022-09-01T00:01:48.215Z,50.877213
2022-09-01T00:02:48.311Z,50.877201
2022-09-01T00:03:48.215Z,50.877239
2022-09-01T00:04:48.273Z,50.877209
2022-09-01T00:05:48.184Z,50.877193
2022-09-01T00:06:48.165Z,50.877190
2022-09-01T00:07:48.184Z,50.877171
2022-09-01T00:08:48.158Z,50.877178
2022-09-01T00:09:48.142Z,50.877186
2022-09-01T00:10:48.128Z,50.877213
2022-09-01T00:11:50.715Z,50.877201
2022-09-01T00:12:48.203Z,50.877205
2022-09-01T00:13:48.110Z,50.877216
2022-09-01T00:14:48.117Z,50.877193
2022-09-01T00:15:48.155Z,50.877178
2022-09-01T00:16:48.095Z,50.877193
2022-09-01T00:17:48.091Z,50.877220
2022-09-01T00:18:48.055Z,50.877224
2022-09-01T00:19:48.047Z,50.877220
2022-09-01T00:20:48.058Z,50.877205
2022-09-01T00:21:48.054Z,50.877201
2022-09-01T00:22:48.015Z,50.877209
2022-09-01T00:23:48.007Z,50.877220
2022-09-01T00:24:48.024Z,50.877197
2022-09-01T00:25:48.005Z,50.877190
2022-09-01T00:26:47.990Z,50.877186
2022-09-01T00:27:48.017Z,50.877193
2022-09-01T00:28:47.954Z,50.877182
2022-09-01T00:29:47.953Z,50.877193
2022-09-01T00:30:47.975Z,50.877228
2022-09-01T00:31:47.956Z,50.877213
2022-09-01T00:32:48.010Z,50.877201
2022-09-01T00:33:47.934Z,50.877193
2022-09-01T00:34:47.924Z,50.877197
2022-09-01T00:35:47.885Z,50.877197
2022-09-01T00:36:47.949Z,50.877193
2022-09-01T00:37:47.873Z,50.877197
2022-09-01T00:38:47.856Z,50.877205
2022-09-01T00:39:47.886Z,50.877182
2022-09-01T00:40:47.888Z,50.877205
2022-09-01T00:41:47.848Z,50.877228
2022-09-01T00:42:47.829Z,50.877182
2022-09-01T00:43:47.824Z,50.877190
2022-09-01T00:44:47.801Z,50.877182
2022-09-01T00:45:47.844Z,50.877213
2022-09-01T00:46:50.972Z,50.877220
2022-09-01T00:47:48.788Z,50.877209
2022-09-01T00:48:47.780Z,50.877201
2022-09-01T00:49:47.785Z,50.877209
2022-09-01T00:50:49.547Z,50.877201
2022-09-01T00:51:48.754Z,50.877235
2022-09-01T00:52:47.729Z,50.877239
2022-09-01T00:53:47.726Z,50.877201
2022-09-01T00:54:47.749Z,50.877201
2022-09-01T00:55:47.701Z,50.877186
2022-09-01T00:56:49.712Z,50.877182
2022-09-01T00:57:48.701Z,50.877224
2022-09-01T00:58:47.690Z,50.877224
2022-09-01T00:59:47.667Z,50.877224
2022-09-01T01:00:47.677Z,50.877216
2022-09-01T01:01:47.730Z,50.877197
2022-09-01T01:02:47.719Z,50.877190
2022-09-01T01:03:47.645Z,50.877174
2022-09-01T01:04:47.620Z,50.877171
2022-09-01T01:05:47.597Z,50.877197
2022-09-01T01:06:47.615Z,50.877216
2022-09-01T01:07:47.979Z,50.877182
2022-09-01T01:08:47.590Z,50.877174
2022-09-01T01:09:47.651Z,50.877171
2022-09-01T01:10:47.608Z,50.877136
2022-09-01T01:11:47.557Z,50.877136
2022-09-01T01:12:47.596Z,50.877087
2022-09-01T01:13:47.520Z,50.877098
2022-09-01T01:14:47.528Z,50.877087
2022-09-01T01:15:47.513Z,50.877155
2022-09-01T01:16:47.571Z,50.877197
2022-09-01T01:17:47.501Z,50.877182
2022-09-01T01:18:47.502Z,50.877129
2022-09-01T01:19:47.500Z,50.877163
2022-09-01T01:20:47.471Z,50.877121
2022-09-01T01:21:47.441Z,50.877140
2022-09-01T01:22:47.456Z,50.877159
2022-09-01T01:23:47.461Z,50.877232
2022-09-01T01:24:47.452Z,50.877171
2022-09-01T01:25:47.457Z,50.877174
2022-09-01T01:26:47.404Z,50.877224
2022-09-01T01:27:47.388Z,50.877201
2022-09-01T01:28:47.401Z,50.877171
2022-09-01T01:29:47.395Z,50.877182
2022-09-01T01:30:47.425Z,50.877075
2022-09-01T01:31:47.358Z,50.877132
2022-09-01T01:32:47.340Z,50.877144
2022-09-01T01:33:47.352Z,50.877232
2022-09-01T01:34:48.723Z,50.877205
2022-09-01T01:35:47.356Z,50.877243
2022-09-01T01:36:47.326Z,50.877239
2022-09-01T01:37:47.316Z,50.877113
2022-09-01T01:38:47.291Z,50.877125
2022-09-01T01:39:47.296Z,50.877171
2022-09-01T01:40:47.307Z,50.877151
2022-09-01T01:41:47.277Z,50.877121
2022-09-01T01:42:47.278Z,50.877144
2022-09-01T01:43:47.276Z,50.877125
2022-09-01T01:44:47.238Z,50.877136
2022-09-01T01:45:47.258Z,50.877205
2022-09-01T01:46:47.213Z,50.877178
2022-09-01T01:47:47.189Z,50.877190
2022-09-01T01:48:47.209Z,50.877190
2022-09-01T01:49:47.195Z,50.877209
2022-09-01T01:50:47.203Z,50.877193
2022-09-01T01:51:47.164Z,50.877186
2022-09-01T01:52:47.184Z,50.877174
2022-09-01T01:53:47.167Z,50.877140
2022-09-01T01:54:47.177Z,50.877151
2022-09-01T01:55:47.144Z,50.877140
2022-09-01T01:56:47.110Z,50.877148
2022-09-01T01:57:47.120Z,50.877159
2022-09-01T01:58:47.097Z,50.877151
2022-09-01T01:59:47.113Z,50.877155
2022-09-01T02:00:47.088Z,50.877159
2022-09-01T02:01:47.115Z,50.877163
2022-09-01T02:02:47.121Z,50.877159
2022-09-01T02:03:47.053Z,50.877167
2022-09-01T02:04:47.072Z,50.877182
2022-09-01T02:05:47.052Z,50.877171
2022-09-01T02:06:47.056Z,50.877159
2022-09-01T02:07:47.008Z,50.877167
2022-09-01T02:08:47.015Z,50.877178
2022-09-01T02:09:46.988Z,50.877167
2022-09-01T02:10:46.982Z,50.877159
2022-09-01T02:11:46.991Z,50.877178
2022-09-01T02:12:46.958Z,50.877155
2022-09-01T02:13:46.984Z,50.877167
2022-09-01T02:14:46.951Z,50.877174
2022-09-01T02:15:46.958Z,50.877182
2022-09-01T02:16:47.081Z,50.877171
2022-09-01T02:17:46.911Z,50.877174
2022-09-01T02:18:46.939Z,50.877182
2022-09-01T02:19:46.892Z,50.877167
2022-09-01T02:20:46.921Z,50.877163
2022-09-01T02:21:46.888Z,50.877174
2022-09-01T02:22:46.896Z,50.877182
2022-09-01T02:23:46.899Z,50.877197
2022-09-01T02:24:46.863Z,50.877182
2022-09-01T02:26:14.178Z,50.877190
2022-09-01T02:26:48.859Z,50.877182
2022-09-01T02:27:46.814Z,50.877186
2022-09-01T02:28:49.840Z,50.877220
2022-09-01T02:29:47.790Z,50.877213
2022-09-01T02:30:46.851Z,50.877174
2022-09-01T02:31:46.791Z,50.877167
2022-09-01T02:32:46.770Z,50.877171
2022-09-01T02:33:46.810Z,50.877193
2022-09-01T02:34:46.766Z,50.877190
2022-09-01T02:35:46.735Z,50.877182
2022-09-01T02:36:46.760Z,50.877197
2022-09-01T02:37:46.734Z,50.877201
2022-09-01T02:38:53.624Z,50.877186
2022-09-01T02:39:47.698Z,50.877190
2022-09-01T02:40:46.738Z,50.877205
2022-09-01T02:41:46.718Z,50.877193
2022-09-01T02:42:46.692Z,50.877178
2022-09-01T02:43:46.676Z,50.877186
2022-09-01T02:44:46.671Z,50.877178
2022-09-01T02:45:46.675Z,50.877129
2022-09-01T02:46:46.624Z,50.877174
2022-09-01T02:47:46.654Z,50.877190
2022-09-01T02:48:46.598Z,50.877193
2022-09-01T02:49:46.606Z,50.877159
2022-09-01T02:50:46.584Z,50.877178
2022-09-01T02:51:46.573Z,50.877163
2022-09-01T02:52:46.601Z,50.877159
2022-09-01T02:53:46.572Z,50.877148
2022-09-01T02:54:46.538Z,50.877174
2022-09-01T02:55:46.537Z,50.877163
2022-09-01T02:56:46.521Z,50.877174
2022-09-01T02:57:46.531Z,50.877136
2022-09-01T02:58:46.599Z,50.877144
2022-09-01T02:59:46.514Z,50.877178
2022-09-01T03:00:46.561Z,50.877174
2022-09-01T03:01:46.483Z,50.877159
2022-09-01T03:02:46.461Z,50.877140
2022-09-01T03:03:46.470Z,50.877174
2022-09-01T03:04:46.490Z,50.877182
2022-09-01T03:05:46.450Z,50.877193
2022-09-01T03:06:46.485Z,50.877182
2022-09-01T03:07:46.450Z,50.877193
2022-09-01T03:08:46.418Z,50.877190
2022-09-01T03:09:46.402Z,50.877190
2022-09-01T03:10:46.385Z,50.877186
2022-09-01T03:11:46.399Z,50.877182
2022-09-01T03:12:46.361Z,50.877193
2022-09-01T03:13:46.363Z,50.877193
2022-09-01T03:14:46.406Z,50.877182
2022-09-01T03:15:46.372Z,50.877178
2022-09-01T03:16:46.412Z,50.877186
2022-09-01T03:17:46.325Z,50.877182
2022-09-01T03:18:46.314Z,50.877186
2022-09-01T03:19:46.334Z,50.877190
2022-09-01T03:20:46.289Z,50.877190
2022-09-01T03:21:46.301Z,50.877186
2022-09-01T03:22:47.261Z,50.877182
2022-09-01T03:23:46.290Z,50.877178
2022-09-01T03:24:46.248Z,50.877193
2022-09-01T03:25:46.232Z,50.877193
2022-09-01T03:26:46.273Z,50.877209
2022-09-01T03:27:46.221Z,50.877140
2022-09-01T03:28:46.240Z,50.877197
2022-09-01T03:29:46.239Z,50.877197
2022-09-01T03:30:46.216Z,50.877182
2022-09-01T03:31:46.238Z,50.877167
2022-09-01T03:32:46.193Z,50.877171
2022-09-01T03:33:46.167Z,50.877201
2022-09-01T03:34:46.189Z,50.877209
2022-09-01T03:35:46.149Z,50.877201
2022-09-01T03:36:46.154Z,50.877201
2022-09-01T03:37:46.150Z,50.877151
2022-09-01T03:38:46.146Z,50.877190
2022-09-01T03:39:46.101Z,50.877186
2022-09-01T03:40:46.150Z,50.877197
2022-09-01T03:41:46.079Z,50.877186
2022-09-01T03:42:46.096Z,50.877182
2022-09-01T03:43:47.200Z,50.877220
2022-09-01T03:44:47.850Z,50.877197
2022-09-01T03:45:46.085Z,50.877186
2022-09-01T03:46:46.085Z,50.877159
2022-09-01T03:47:46.057Z,50.877186
2022-09-01T03:48:46.048Z,50.877174
2022-09-01T03:49:46.011Z,50.877178
2022-09-01T03:50:45.980Z,50.877209
2022-09-01T03:51:46.004Z,50.877216
2022-09-01T03:52:45.978Z,50.877205
2022-09-01T03:53:45.969Z,50.877174
2022-09-01T03:54:45.952Z,50.877201
2022-09-01T03:55:45.934Z,50.877182
2022-09-01T03:56:45.955Z,50.877186
2022-09-01T03:57:45.929Z,50.877167
2022-09-01T03:58:45.926Z,50.877167
2022-09-01T03:59:45.902Z,50.877197
2022-09-01T04:00:48.810Z,50.877197
2022-09-01T04:01:45.912Z,50.877182
2022-09-01T04:02:45.887Z,50.877163
2022-09-01T04:03:45.886Z,50.877186
2022-09-01T04:04:45.863Z,50.877186
2022-09-01T04:05:45.857Z,50.877178
2022-09-01T04:06:45.918Z,50.877174
2022-09-01T04:07:45.841Z,50.877182
2022-09-01T04:08:45.837Z,50.877148
2022-09-01T04:09:45.815Z,50.877102
2022-09-01T04:10:45.826Z,50.877110
2022-09-01T04:11:46.819Z,50.877113
2022-09-01T04:12:46.788Z,50.877094
2022-09-01T04:13:45.767Z,50.877056
2022-09-01T04:14:45.761Z,50.877048
2022-09-01T04:15:45.818Z,50.877014
2022-09-01T04:16:45.801Z,50.877022
2022-09-01T04:17:45.771Z,50.877007
2022-09-01T04:18:45.758Z,50.877117
2022-09-01T04:19:45.703Z,50.877026
2022-09-01T04:20:45.725Z,50.877026
2022-09-01T04:21:45.713Z,50.876987
2022-09-01T04:22:45.668Z,50.876949
2022-09-01T04:23:45.681Z,50.877033
2022-09-01T04:24:46.179Z,50.876965
2022-09-01T04:25:45.680Z,50.876907
2022-09-01T04:26:45.654Z,50.876949
2022-09-01T04:27:45.630Z,50.876919
2022-09-01T04:28:45.667Z,50.876804
2022-09-01T04:29:45.640Z,50.876808
2022-09-01T04:30:45.610Z,50.876884
2022-09-01T04:31:45.626Z,50.876965
2022-09-01T04:32:45.580Z,50.876980
2022-09-01T04:33:45.604Z,50.877224
2022-09-01T04:34:45.576Z,50.877228
2022-09-01T04:35:45.572Z,50.877262
2022-09-01T04:36:45.533Z,50.877251
2022-09-01T04:37:45.539Z,50.877239
2022-09-01T04:38:45.536Z,50.877224
2022-09-01T04:39:45.560Z,50.877274
2022-09-01T04:40:45.583Z,50.877254
2022-09-01T04:41:45.486Z,50.877235
2022-09-01T04:42:45.537Z,50.877232
2022-09-01T04:43:45.488Z,50.877174
2022-09-01T04:44:45.458Z,50.877205
2022-09-01T04:45:45.500Z,50.877220
2022-09-01T04:46:45.449Z,50.877216
2022-09-01T04:47:45.493Z,50.877209
2022-09-01T04:48:45.974Z,50.877190
2022-09-01T04:49:45.428Z,50.877190
2022-09-01T04:50:45.412Z,50.877182
2022-09-01T04:51:46.636Z,50.877197
2022-09-01T04:52:45.421Z,50.877193
2022-09-01T04:53:45.407Z,50.877197
2022-09-01T04:54:45.362Z,50.877193
2022-09-01T04:55:45.355Z,50.877205
2022-09-01T04:56:45.329Z,50.877205
2022-09-01T04:57:45.360Z,50.877186
2022-09-01T04:58:45.319Z,50.877190
2022-09-01T04:59:45.357Z,50.877205
2022-09-01T05:00:45.333Z,50.877213
2022-09-01T05:01:45.407Z,50.877224
2022-09-01T05:02:45.319Z,50.877235
2022-09-01T05:03:45.278Z,50.877220
2022-09-01T05:04:45.294Z,50.877201
2022-09-01T05:05:45.258Z,50.877220
2022-09-01T05:06:45.298Z,50.877213
2022-09-01T05:07:45.224Z,50.877178
2022-09-01T05:08:45.223Z,50.877178
2022-09-01T05:09:45.259Z,50.877174
2022-09-01T05:10:45.197Z,50.877167
2022-09-01T05:11:45.251Z,50.877205
2022-09-01T05:12:45.184Z,50.877232
2022-09-01T05:13:45.168Z,50.877216
2022-09-01T05:14:45.163Z,50.877235
2022-09-01T05:15:45.148Z,50.877262
2022-09-01T05:16:45.184Z,50.877247
2022-09-01T05:17:45.136Z,50.877254
2022-09-01T05:18:45.159Z,50.877239
2022-09-01T05:19:45.122Z,50.877201
2022-09-01T05:20:45.113Z,50.877213
2022-09-01T05:21:45.087Z,50.877186
2022-09-01T05:22:45.088Z,50.877159
2022-09-01T05:23:45.095Z,50.877178
2022-09-01T05:24:45.075Z,50.877178
2022-09-01T05:25:45.052Z,50.877113
2022-09-01T05:26:45.041Z,50.877140
2022-09-01T05:27:45.038Z,50.877106
2022-09-01T05:28:45.056Z,50.877121
2022-09-01T05:29:45.043Z,50.877193
2022-09-01T05:30:45.017Z,50.877197
2022-09-01T05:31:45.041Z,50.877220
2022-09-01T05:32:45.011Z,50.877224
2022-09-01T05:33:45.001Z,50.877228
2022-09-01T05:34:45.974Z,50.877216
2022-09-01T05:35:44.943Z,50.877209
2022-09-01T05:36:44.952Z,50.877224
2022-09-01T05:37:44.949Z,50.877167
2022-09-01T05:38:44.930Z,50.877243
2022-09-01T05:39:44.908Z,50.877228
2022-09-01T05:40:44.940Z,50.877213
2022-09-01T05:41:44.918Z,50.877186
2022-09-01T05:42:44.885Z,50.877197
2022-09-01T05:43:45.875Z,50.877216
2022-09-01T05:44:44.865Z,50.877213
2022-09-01T05:46:03.364Z,50.877213
2022-09-01T05:46:45.990Z,50.877213
2022-09-01T05:47:44.839Z,50.877243
2022-09-01T05:48:44.826Z,50.877239
2022-09-01T05:49:44.833Z,50.877224
2022-09-01T05:50:44.809Z,50.877247
2022-09-01T05:51:45.815Z,50.877224
2022-09-01T05:52:46.804Z,50.877228
2022-09-01T05:53:44.779Z,50.877232
2022-09-01T05:54:44.770Z,50.877235
2022-09-01T05:55:44.757Z,50.877243
2022-09-01T05:56:44.990Z,50.877251
2022-09-01T05:57:44.757Z,50.877254
2022-09-01T05:59:46.717Z,50.877239
2022-09-01T06:00:44.706Z,50.877239
2022-09-01T06:01:48.183Z,50.877235
2022-09-01T06:02:46.826Z,50.877224
2022-09-01T06:03:44.679Z,50.877239
2022-09-01T06:04:44.670Z,50.877232
2022-09-01T06:05:44.675Z,50.877193
2022-09-01T06:07:05.348Z,50.877216
2022-09-01T06:07:46.728Z,50.877213
2022-09-01T06:08:46.833Z,50.877216
2022-09-01T06:09:45.614Z,50.877213
2022-09-01T06:10:44.611Z,50.877197
2022-09-01T06:11:44.616Z,50.877201
2022-09-01T06:12:44.636Z,50.877186
2022-09-01T06:13:44.594Z,50.877186
2022-09-01T06:14:44.572Z,50.877205
2022-09-01T06:15:44.562Z,50.877197
2022-09-01T06:16:45.571Z,50.877220
2022-09-01T06:17:44.552Z,50.877254
2022-09-01T06:18:44.598Z,50.877258
2022-09-01T06:19:44.568Z,50.877232
2022-09-01T06:20:44.536Z,50.877224
2022-09-01T06:21:44.516Z,50.877228
2022-09-01T06:22:44.513Z,50.877197
2022-09-01T06:23:44.501Z,50.877205
2022-09-01T06:24:46.285Z,50.877182
2022-09-01T06:25:44.484Z,50.877193
2022-09-01T06:26:44.461Z,50.877216
2022-09-01T06:27:44.459Z,50.877182
2022-09-01T06:28:44.451Z,50.877228
2022-09-01T06:29:45.416Z,50.877213
2022-09-01T06:30:44.420Z,50.877213
2022-09-01T06:31:44.518Z,50.877186
2022-09-01T06:32:44.415Z,50.877205
2022-09-01T06:33:44.388Z,50.877228
2022-09-01T06:34:44.364Z,50.877201
2022-09-01T06:35:45.370Z,50.877220
2022-09-01T06:36:44.350Z,50.877213
2022-09-01T06:37:44.367Z,50.877224
2022-09-01T06:38:44.395Z,50.877224
2022-09-01T06:39:44.323Z,50.877205
2022-09-01T06:40:44.437Z,50.877213
2022-09-01T06:41:44.325Z,50.877243
2022-09-01T06:42:44.306Z,50.877201
2022-09-01T06:43:44.292Z,50.877216
2022-09-01T06:44:44.294Z,50.877228
2022-09-01T06:45:44.295Z,50.877205
2022-09-01T06:46:44.322Z,50.877182
2022-09-01T06:47:44.251Z,50.877205
2022-09-01T06:48:44.231Z,50.877209
2022-09-01T06:49:44.241Z,50.877209
2022-09-01T06:51:44.240Z,50.877190
2022-09-01T06:53:45.220Z,50.877197
2022-09-01T06:54:45.197Z,50.877163
2022-09-01T06:55:44.169Z,50.877151
2022-09-01T06:56:44.998Z,50.877140
2022-09-01T06:58:45.148Z,50.877174
2022-09-01T06:59:44.144Z,50.877182
2022-09-01T07:00:44.133Z,50.877182
2022-09-01T07:01:44.188Z,50.877167
2022-09-01T07:02:44.198Z,50.877174
2022-09-01T07:03:44.118Z,50.877178
2022-09-01T07:04:44.091Z,50.877171
2022-09-01T07:06:01.325Z,50.877163
2022-09-01T07:07:53.525Z,50.877163
2022-09-01T07:09:47.947Z,50.877155
2022-09-01T07:13:05.296Z,50.877155
2022-09-01T07:17:45.016Z,50.877163
2022-09-01T07:18:44.684Z,50.877174
2022-09-01T07:19:52.031Z,50.877155
2022-09-01T07:22:06.784Z,50.877178
2022-09-01T07:24:06.060Z,50.877186
2022-09-01T07:24:44.906Z,50.877182
2022-09-01T07:26:02.218Z,50.877213
2022-09-01T07:27:45.875Z,50.877205
2022-09-01T07:28:43.896Z,50.877182
2022-09-01T07:29:43.862Z,50.877178
2022-09-01T07:30:43.874Z,50.877094
2022-09-01T07:32:47.528Z,50.877136
2022-09-01T07:33:44.436Z,50.877132
2022-09-01T07:34:46.082Z,50.877144
2022-09-01T07:36:24.949Z,50.877159
2022-09-01T07:39:47.266Z,50.877178
2022-09-01T07:39:49.797Z,50.877129
2022-09-01T07:42:32.053Z,50.877182
2022-09-01T07:42:58.863Z,50.877140
2022-09-01T07:43:44.731Z,50.877121
2022-09-01T07:44:44.175Z,50.877132
2022-09-01T07:45:48.071Z,50.877163
2022-09-01T07:46:45.732Z,50.877075
2022-09-01T07:47:59.083Z,50.877140
2022-09-01T07:51:44.691Z,50.877144
2022-09-01T07:52:43.667Z,50.877140
2022-09-01T07:53:43.635Z,50.877171
2022-09-01T07:54:43.629Z,50.877140
2022-09-01T07:55:44.012Z,50.877144
2022-09-01T07:56:43.611Z,50.877178
2022-09-01T07:57:43.594Z,50.877163
2022-09-01T07:58:43.591Z,50.877174
2022-09-01T07:59:43.594Z,50.877163
2022-09-01T08:00:43.605Z,50.877178
2022-09-01T08:01:43.586Z,50.877174
2022-09-01T08:02:43.639Z,50.877178
2022-09-01T08:03:43.562Z,50.877193
2022-09-01T08:04:43.538Z,50.877193
2022-09-01T08:05:43.546Z,50.877163
2022-09-01T08:06:43.508Z,50.877167
2022-09-01T08:07:58.427Z,50.877182
2022-09-01T08:08:44.504Z,50.877174
2022-09-01T08:09:44.636Z,50.877163
2022-09-01T08:10:44.502Z,50.877151
2022-09-01T08:12:02.130Z,50.877193
2022-09-01T08:12:44.473Z,50.877171
2022-09-01T08:13:43.462Z,50.877174
2022-09-01T08:14:43.434Z,50.877178
2022-09-01T08:16:08.778Z,50.877144
2022-09-01T08:16:53.093Z,50.877182
2022-09-01T08:17:52.706Z,50.877151
2022-09-01T08:18:49.354Z,50.877144
2022-09-01T08:19:44.386Z,50.877190
2022-09-01T08:20:43.396Z,50.877174
2022-09-01T08:21:43.397Z,50.877186
2022-09-01T08:22:43.366Z,50.877167
2022-09-01T08:23:44.249Z,50.877155
2022-09-01T08:24:43.353Z,50.877182
2022-09-01T08:25:43.324Z,50.877186
2022-09-01T08:26:43.349Z,50.877174
2022-09-01T08:27:43.309Z,50.877167
2022-09-01T08:28:47.335Z,50.877190
2022-09-01T08:29:44.314Z,50.877178
2022-09-01T08:30:51.243Z,50.877159
2022-09-01T08:31:43.336Z,50.877190
2022-09-01T08:32:43.275Z,50.877167
2022-09-01T08:33:43.255Z,50.877155
2022-09-01T08:34:43.243Z,50.877155
2022-09-01T08:35:43.503Z,50.877163
2022-09-01T08:36:43.225Z,50.877163
2022-09-01T08:37:43.239Z,50.877148
2022-09-01T08:38:43.195Z,50.877159
2022-09-01T08:39:43.197Z,50.877151
2022-09-01T08:40:43.234Z,50.877159
2022-09-01T08:41:46.817Z,50.877159
2022-09-01T08:42:43.168Z,50.877167
2022-09-01T08:43:43.161Z,50.877167
2022-09-01T08:44:43.174Z,50.877167
2022-09-01T08:45:43.133Z,50.877186
2022-09-01T08:46:43.218Z,50.877182
2022-09-01T08:48:08.343Z,50.877159
2022-09-01T08:49:45.344Z,50.877171
2022-09-01T08:50:43.093Z,50.877174
2022-09-01T08:51:43.094Z,50.877171
2022-09-01T08:52:43.067Z,50.877209
2022-09-01T08:53:43.058Z,50.877171
2022-09-01T08:54:43.049Z,50.877140
2022-09-01T08:55:43.047Z,50.877129
2022-09-01T08:56:43.031Z,50.877129
2022-09-01T08:57:43.021Z,50.877159
2022-09-01T08:58:43.016Z,50.877178
2022-09-01T08:59:42.990Z,50.877163
2022-09-01T09:00:43.024Z,50.877159
2022-09-01T09:01:42.989Z,50.877140
2022-09-01T09:02:43.001Z,50.877159
2022-09-01T09:03:43.081Z,50.877163
2022-09-01T09:04:42.948Z,50.877144
2022-09-01T09:05:42.945Z,50.877171
2022-09-01T09:06:42.967Z,50.877155
2022-09-01T09:07:42.917Z,50.877155
2022-09-01T09:08:42.908Z,50.877190
2022-09-01T09:09:46.406Z,50.877201
2022-09-01T09:10:42.890Z,50.877182
2022-09-01T09:11:42.903Z,50.877136
2022-09-01T09:12:49.762Z,50.877171
2022-09-01T09:13:44.864Z,50.877132
2022-09-01T09:14:42.865Z,50.877174
2022-09-01T09:15:42.908Z,50.877190
2022-09-01T09:16:42.848Z,50.877209
2022-09-01T09:17:42.835Z,50.877213
2022-09-01T09:18:54.712Z,50.877144
2022-09-01T09:19:44.818Z,50.877167
2022-09-01T09:20:42.820Z,50.877193
2022-09-01T09:21:42.815Z,50.877182
2022-09-01T09:22:42.811Z,50.877151
2022-09-01T09:23:42.762Z,50.877205
2022-09-01T09:24:42.759Z,50.877148
2022-09-01T09:25:42.743Z,50.877171
2022-09-01T09:26:43.105Z,50.877193
2022-09-01T09:27:43.744Z,50.877163
2022-09-01T09:28:43.078Z,50.877136
2022-09-01T09:29:45.523Z,50.877201
2022-09-01T09:30:42.723Z,50.877209
2022-09-01T09:31:42.684Z,50.877155
2022-09-01T09:33:11.743Z,50.877163
2022-09-01T09:33:51.627Z,50.877228
2022-09-01T09:34:44.695Z,50.877220
2022-09-01T09:35:42.679Z,50.877132
2022-09-01T09:36:42.651Z,50.877110
2022-09-01T09:37:42.641Z,50.877205
2022-09-01T09:38:42.691Z,50.877224
2022-09-01T09:39:42.615Z,50.877171
2022-09-01T09:41:09.486Z,50.877197
2022-09-01T09:41:43.790Z,50.877224
2022-09-01T09:42:42.590Z,50.877224
2022-09-01T09:43:42.592Z,50.877190
2022-09-01T09:44:42.564Z,50.877193
2022-09-01T09:45:42.588Z,50.877197
2022-09-01T09:46:43.713Z,50.877171
2022-09-01T09:47:44.855Z,50.877132
2022-09-01T09:48:43.525Z,50.877174
2022-09-01T09:49:48.194Z,50.877205
2022-09-01T09:50:43.494Z,50.877186
2022-09-01T09:51:42.530Z,50.877159
2022-09-01T09:52:42.494Z,50.877083
2022-09-01T09:53:42.519Z,50.877197
2022-09-01T09:54:42.502Z,50.877228
2022-09-01T09:55:42.471Z,50.877388
2022-09-01T09:56:42.464Z,50.877300
2022-09-01T09:57:42.546Z,50.877289
2022-09-01T09:58:42.431Z,50.877319
2022-09-01T09:59:57.619Z,50.877213
2022-09-01T10:00:44.422Z,50.877216
2022-09-01T10:01:42.441Z,50.877167
2022-09-01T10:02:42.418Z,50.877144
2022-09-01T10:03:42.533Z,50.877117
2022-09-01T10:04:42.380Z,50.877182
2022-09-01T10:05:43.249Z,50.877228
2022-09-01T10:06:42.353Z,50.877144
2022-09-01T10:07:42.389Z,50.877178
2022-09-01T10:08:42.330Z,50.877163
2022-09-01T10:09:42.323Z,50.877190
2022-09-01T10:10:42.340Z,50.877113
2022-09-01T10:11:42.307Z,50.877163
2022-09-01T10:12:42.284Z,50.877121
2022-09-01T10:13:42.406Z,50.877193
2022-09-01T10:14:53.114Z,50.877251
2022-09-01T10:15:44.274Z,50.877258
2022-09-01T10:16:42.285Z,50.877243
2022-09-01T10:17:43.589Z,50.877220
2022-09-01T10:18:42.244Z,50.877209
2022-09-01T10:19:42.286Z,50.877140
2022-09-01T10:20:42.231Z,50.877178
2022-09-01T10:21:42.219Z,50.877167
2022-09-01T10:22:42.193Z,50.877186
2022-09-01T10:23:42.176Z,50.877174
2022-09-01T10:24:45.904Z,50.877197
2022-09-01T10:25:43.182Z,50.877197
2022-09-01T10:26:42.155Z,50.877186
2022-09-01T10:27:42.194Z,50.877209
2022-09-01T10:28:47.240Z,50.877197
2022-09-01T10:29:49.975Z,50.877197
2022-09-01T10:30:44.237Z,50.877182
2022-09-01T10:31:42.114Z,50.877190
2022-09-01T10:32:49.159Z,50.877220
2022-09-01T10:33:44.095Z,50.877209
2022-09-01T10:34:42.261Z,50.877342
2022-09-01T10:35:43.060Z,50.877197
2022-09-01T10:36:42.079Z,50.877094
2022-09-01T10:37:42.038Z,50.877129
2022-09-01T10:38:42.824Z,50.877151
2022-09-01T10:39:43.328Z,50.877155
2022-09-01T10:40:43.370Z,50.877144
2022-09-01T10:41:42.065Z,50.877197
2022-09-01T10:42:45.366Z,50.877205
2022-09-01T10:43:41.983Z,50.877197
2022-09-01T10:44:41.998Z,50.877193
2022-09-01T10:45:42.037Z,50.877201
2022-09-01T10:46:42.337Z,50.877159
2022-09-01T10:47:42.994Z,50.877178
2022-09-01T10:48:55.721Z,50.877224
2022-09-01T10:49:46.494Z,50.877178
2022-09-01T10:50:42.927Z,50.877182
2022-09-01T10:51:50.442Z,50.877186
2022-09-01T10:52:43.374Z,50.877148
2022-09-01T10:53:41.971Z,50.877216
2022-09-01T10:55:42.875Z,50.877190
2022-09-01T10:56:43.883Z,50.877171
2022-09-01T10:57:42.969Z,50.877209
2022-09-01T10:59:55.501Z,50.877174
2022-09-01T11:01:10.671Z,50.877129
2022-09-01T11:01:48.972Z,50.877113
2022-09-01T11:02:46.499Z,50.877163
2022-09-01T11:03:47.990Z,50.877197
2022-09-01T11:04:43.954Z,50.877201
2022-09-01T11:05:41.788Z,50.877205
2022-09-01T11:06:42.397Z,50.877129
2022-09-01T11:08:42.753Z,50.877190
2022-09-01T11:09:42.859Z,50.877190
2022-09-01T11:10:41.755Z,50.877178
2022-09-01T11:11:41.716Z,50.877190
2022-09-01T11:12:41.957Z,50.877209
2022-09-01T11:13:44.248Z,50.877171
2022-09-01T11:14:41.705Z,50.877140
2022-09-01T11:15:41.775Z,50.877159
2022-09-01T11:16:49.725Z,50.877186
2022-09-01T11:17:43.705Z,50.877182
2022-09-01T11:18:41.656Z,50.877220
2022-09-01T11:19:41.694Z,50.877174
2022-09-01T11:20:41.705Z,50.877178
2022-09-01T11:21:41.673Z,50.877178
2022-09-01T11:22:41.627Z,50.877121
2022-09-01T11:23:41.636Z,50.877151
2022-09-01T11:24:41.606Z,50.877174
2022-09-01T11:25:41.596Z,50.877148
2022-09-01T11:26:41.609Z,50.877190
2022-09-01T11:27:41.572Z,50.877144
2022-09-01T11:28:41.685Z,50.877247
2022-09-01T11:29:41.542Z,50.877205
2022-09-01T11:30:42.600Z,50.877220
2022-09-01T11:31:41.643Z,50.877201
2022-09-01T11:32:46.274Z,50.877232
2022-09-01T11:33:41.513Z,50.877224
2022-09-01T11:34:41.522Z,50.877197
2022-09-01T11:35:41.514Z,50.877178
2022-09-01T11:36:41.495Z,50.877186
2022-09-01T11:37:41.482Z,50.877193
2022-09-01T11:38:41.456Z,50.877216
2022-09-01T11:39:41.479Z,50.877235
2022-09-01T11:40:41.480Z,50.877213
2022-09-01T11:41:43.023Z,50.877190
2022-09-01T11:42:41.451Z,50.877136
2022-09-01T11:43:41.411Z,50.877197
2022-09-01T11:44:42.681Z,50.877235
2022-09-01T11:45:41.429Z,50.877232
2022-09-01T11:46:41.389Z,50.877213
2022-09-01T11:47:41.380Z,50.877235
2022-09-01T11:48:41.377Z,50.877186
2022-09-01T11:49:41.391Z,50.877205
2022-09-01T11:50:41.348Z,50.877171